Main page
METAR-TAF:

METAR-TAF

Airports :

Bobo-Dioulasso, Burkina Faso

Bobo Dioulasso Airport

latitude: 11-10N, longitude: 004-19W, elevation: 460 m

Current weather observation

The report was made 45 minutes ago, at 21:00 UTC
Wind 4 kt from the South
Temperature 30°C
Humidity 49%
Pressure 1013 hPa
Visibility: 8000 m

METAR: DFOO 242100Z 18004KT 8000 NSC 30/18 Q1013

Time: 21:45 (21:45 UTC)

Forecast

The report was made 4 hours and 45 minutes ago, at 17:00 UTC
Forecast valid from 24 at 18 UTC to 25 at 18 UTC
Wind 8 kt from the South
Visibility 10 km or more
no clouds below 1500 m and no cumulonimbus
Probability 30% :
Temporary
from 24 at 23 UTC to 25 at 06 UTC
Few clouds at a height of 2600 ft
thunderstorm

TAF: DFOO 241700Z 2418/2518 17008KT CAVOK PROB30 TEMPO 2423/2506 TS FEW026 FEWO36CB

Weather observations and forecasts of more than 4000 airports (METAR and TAF reports).

The available stations are represented by yellow and red dots on the map.

Hover mouse over dot to see the name of the station.

Then click to see weather observations and forecasts.

To change the map : click on the green buttons with a black cross to zoom in, on the green button with a dash to zoom out, or on the green arrows for adjacent maps.


METAR-TAF: